Portada
METAR-TAF:

METAR-TAF

Aeropuertos :

Aeropuerto Internacional de Damasco

Damasco, Siria

latitud: 33-25N, longitud: 036-31E, altitud: 608 m

Observación

El informe se hizo hace 59 minutos, a las 11:00 UTC
Viento 11 kt del oeste-suroeste
Temperatura 26°C
Humedad 24%
Presión 1015 hPa
Visibilidad 10 km o más
sin nubes por debajo de 1500 m y sin presencia de cumulonimbus.

METAR: OSDI 251100Z 25011KT CAVOK 26/04 Q1015

Hora: 14:59 (11:59 UTC)

Pronóstico

El informe se hizo hace 1 hora y 59 minutos, a las 10:00 UTC
Pronóstico válido del 25 a las 12 UTC al 26 a las 18 UTC
Viento 10 kt del suroeste
Visibilidad 10 km o más
sin nubes por debajo de 1500 m y sin presencia de cumulonimbus.
Temporalmente
del 25 a las 12 UTC al 25 a las 18 UTC
Viento 15 kt del oeste-suroeste con ráfagas de 25 kt
Visibilidad 10 km o más
Escasas nubes a una altura de 3000 ft

TAF: OSDI 251000Z 2512/2618 22010KT CAVOK TEMPO 2512/2518 24015G25KT 9999 FEW030

Observaciones y pronósticos meteorológicos de más de 4000 aeropuertos (mensajes METAR y TAF).

Los puntos amarillos y rojos representan las estaciones disponibles.

Ponga el ratón en el punto deseado para ver el nombre de la estación.

Haga clic para ver las observaciones y los pronósticos meteorológicos.

Para cambiar el mapa : haga clic en los botones verdes con una cruz de color negro para hacer un zoom, en el botón verde con un guión para alejar o en las flechas verdes para mapas adyacentes.


METAR-TAF: